• Join FlightAware (Why Join?)
  • Login
  • US Flag 
07:24PM EDT


 

Airport Tracker/Info


-or-


 

Live Flight TrackerFlight Track Log ✈ AWI3698 ✈ 24-Apr-2013 ✈ KPHL - KBUF

Flight Track Log - Related Links

Times and Time Zones

All times are in EDT time to prevent confusion due to time zone crossing. See the AWI3698 flight status page for this flight to view local times or setup timezone preferences in your user account.

Time Position Orientation Groundspeed Altitude Reporting Facility
EDT Latitude Longitude Course Direction KTS MPH feet Rate Location/Type
09:35AM 39.8594 -75.2856 311° West 170 196 1,200  Level FAA TRACON SMA TRACON (SMA)
09:35AM 39.8558 -75.3078 258° West 166 191 2,000 2,220 Climbing FAA TRACON SMA TRACON (SMA)
09:35AM 39.8531 -75.3283 260° West 200 230 2,700 2,880 Climbing FAA TRACON SMA TRACON (SMA)
09:36AM 39.8492 -75.3558 260° West 192 221 4,000 2,700 Climbing FAA TRACON SMA TRACON (SMA)
09:36AM 39.8436 -75.3786 252° West 210 242 4,500 1,860 Climbing FAA TRACON SMA TRACON (SMA)
09:36AM 39.8461 -75.4053 277° West 237 273 5,200 2,220 Climbing FAA TRACON SMA TRACON (SMA)
09:37AM 40.0604 -75.4104 323° Northwest  Level FlightAware Approximate
09:37AM 39.8586 -75.4278 306° West 251 289 6,000  Level FAA TRACON SMA TRACON (SMA)
09:37AM 39.8842 -75.4419 337° Northwest 277 319 6,900 2,760 Climbing FAA TRACON SMA TRACON (SMA)
09:37AM 39.9053 -75.4556 334° Northwest 266 306 7,800 2,280 Climbing FAA TRACON SMA TRACON (SMA)
09:38AM 40.1264 -75.4763 323° Northwest  Level FlightAware Approximate
09:38AM 39.9164 -75.4808 300° West 269 310 8,400  Level FAA TRACON SMA TRACON (SMA)
09:38AM 39.9225 -75.5186 282° West 279 321 9,600 3,120 Climbing FAA TRACON SMA TRACON (SMA)
09:38AM 39.9361 -75.5436 305° West 285 328 10,500 2,700 Climbing FAA TRACON SMA TRACON (SMA)
09:39AM 40.1925 -75.5424 323° Northwest  Level FlightAware Approximate
09:39AM 39.9569 -75.5572 333° Northwest 277 319 11,400  Level FAA TRACON SMA TRACON (SMA)
09:39AM 39.9858 -75.5650 348° North 275 316 12,400 2,400 Climbing FAA TRACON SMA TRACON (SMA)
09:39AM 40.0122 -75.5642 North 296 341 13,000 900 Climbing FAA TRACON SMA TRACON (SMA)
09:40AM 40.2542 -75.6062 311° West  Level FlightAware Approximate
09:40AM 40.0392 -75.5625 North 317 365 13,000  Level FAA TRACON SMA TRACON (SMA)
09:40AM 40.0736 -75.5642 358° North 337 388 13,100 120 Climbing FAA TRACON SMA TRACON (SMA)
09:40AM 40.1064 -75.5636 North 364 419 13,100 -180 Level FAA TRACON SMA TRACON (SMA)
09:41AM 40.1386 -75.5625 North 372 428 13,000 -180 Descending FAA TRACON SMA TRACON (SMA)
09:41AM 40.1686 -75.5619 North 378 435 13,000 420 Level FAA TRACON SMA TRACON (SMA)
09:41AM 40.2094 -75.5647 357° North 366 421 13,300 1,020 Climbing FAA TRACON SMA TRACON (SMA)
09:42AM 40.2364 -75.5817 334° Northwest 325 374 13,700 1,140 Climbing FAA TRACON SMA TRACON (SMA)
09:42AM 40.2603 -75.6133 315° West 318 366 14,100 1,020 Climbing FAA TRACON SMA TRACON (SMA)
09:42AM 40.2775 -75.6403 310° West 320 368 14,400 1,380 Climbing FAA TRACON SMA TRACON (SMA)
09:43AM 40.2953 -75.6694 309° West 325 374 15,000 1,800 Climbing FAA TRACON SMA TRACON (SMA)
09:43AM 40.3178 -75.7033 311° West 328 377 15,600 1,500 Climbing FAA TRACON SMA TRACON (SMA)
09:43AM 40.3369 -75.7325 311° West 332 382 16,000 1,080 Climbing FAA TRACON SMA TRACON (SMA)
09:44AM 40.3703 -75.7842 310° West 342 394 16,700 660 Climbing FAA TRACON SMA TRACON (SMA)
09:44AM 40.3703 -75.7842 131° Southeast 342 394 16,700 420 Level FAA TRACON SMA TRACON (SMA)
09:45AM 40.4167 -75.8550 311° West 344 396 17,000 1,320 Climbing New York Center
09:46AM 40.4594 -75.9728 296° West 361 415 18,500 1,680 Climbing New York Center
09:47AM 40.4761 -76.1133 279° West 352 405 20,500 1,620 Climbing New York Center
09:48AM 40.4936 -76.2347 281° West 347 399 21,800 1,320 Climbing New York Center
09:49AM 40.5128 -76.3592 281° West 347 399 23,200 1,140 Climbing New York Center
09:50AM 40.5336 -76.4864 282° West 347 399 24,100 840 Climbing New York Center
09:51AM 40.5567 -76.6139 283° West 352 405 25,000 900 Climbing New York Center
09:52AM 40.6092 -76.7278 301° West 357 411 26,000 480 Climbing New York Center
09:53AM 40.6636 -76.8475 301° West 369 425 26,000  Level New York Center
09:54AM 40.7197 -76.9703 301° West 383 441 26,000  Level New York Center
09:55AM 40.7739 -77.0931 300° West 389 448 26,000  Level New York Center
09:57AM 40.8661 -77.2936 301° West 374 430 26,000  Level Cleveland Center
09:58AM 40.9236 -77.4061 304° West 374 430 26,000  Level Cleveland Center
09:59AM 41.0231 -77.4619 337° Northwest 364 419 26,000  Level Cleveland Center
10:00AM 41.1247 -77.5206 337° Northwest 383 441 26,000  Level Cleveland Center
10:01AM 41.2244 -77.5794 336° Northwest 388 447 26,000  Level Cleveland Center
10:02AM 41.3367 -77.6489 335° Northwest 397 457 26,000  Level Cleveland Center
10:03AM 41.4425 -77.7133 335° Northwest 403 464 26,000  Level Cleveland Center
10:04AM 41.5483 -77.7753 336° Northwest 403 464 26,000  Level Cleveland Center
10:05AM 41.6561 -77.8400 336° Northwest 409 471 26,000 -960 Level Cleveland Center
10:06AM 41.7600 -77.9053 335° Northwest 409 471 24,100 -2,040 Descending Cleveland Center
10:07AM 41.8572 -77.9653 335° Northwest 399 459 22,000 -6,600 Descending Cleveland Center
10:08AM 41.9567 -78.0283 335° Northwest 394 453 11,000 -1,860 Descending Cleveland Center
10:09AM 42.0497 -78.0861 335° Northwest 379 436 18,300 2,520 Climbing Cleveland Center
10:10AM 42.1406 -78.1442 335° Northwest 367 422 16,100 -2,100 Descending Cleveland Center
10:11AM 42.2292 -78.1997 335° Northwest 362 417 14,200 -1,920 Descending Cleveland Center
10:12AM 42.3136 -78.2525 335° Northwest 347 399 12,300 -1,620 Descending Cleveland Center
10:13AM 42.3981 -78.3058 335° Northwest 336 387 11,000 -1,440 Descending Cleveland Center
10:14AM 42.4742 -78.3536 335° Northwest 319 367 9,500 -1,800 Descending Cleveland Center
10:15AM 42.5478 -78.3906 340° North 294 338 7,400 -2,040 Descending Cleveland Center
10:16AM 42.6253 -78.4103 349° North 283 326 5,500 -1,740 Descending Cleveland Center
10:17AM 42.7028 -78.4247 352° North 283 326 4,000 -780 Descending Cleveland Center
10:18AM 42.7803 -78.4447 349° North 283 326 4,000  Level Cleveland Center
10:19AM 42.8472 -78.4622 349° North 278 320 4,000  Level Cleveland Center
10:20AM 42.9206 -78.4853 347° North 272 313 4,000  Level Cleveland Center